sensor_id;sensor_type;location;lat;lon;timestamp;pressure;altitude;pressure_sealevel;temperature;humidity
12801;BME280;6464;42.494;27.470;2022-07-10T05:10:04;100746.56;;;21.46;100.00
12801;BME280;6464;42.494;27.470;2022-07-10T05:21:36;100930.13;;;22.70;100.00
12801;BME280;6464;42.494;27.470;2022-07-10T05:24:27;100934.41;;;22.60;100.00
12801;BME280;6464;42.494;27.470;2022-07-10T05:27:10;100877.53;;;22.39;100.00
12801;BME280;6464;42.494;27.470;2022-07-10T05:40:03;100903.59;;;22.51;100.00
12801;BME280;6464;42.494;27.470;2022-07-10T05:52:36;100833.50;;;22.27;100.00
12801;BME280;6464;42.494;27.470;2022-07-10T05:55:34;100918.28;;;22.87;100.00
12801;BME280;6464;42.494;27.470;2022-07-10T05:58:20;100865.31;;;22.48;100.00
12801;BME280;6464;42.494;27.470;2022-07-10T06:00:57;100888.84;;;22.71;100.00
12801;BME280;6464;42.494;27.470;2022-07-10T06:03:52;100865.19;;;22.64;100.00
12801;BME280;6464;42.494;27.470;2022-07-10T06:06:23;100913.44;;;23.19;100.00
12801;BME280;6464;42.494;27.470;2022-07-10T06:08:52;100853.44;;;22.92;100.00
12801;BME280;6464;42.494;27.470;2022-07-10T06:14:33;100981.69;;;23.83;100.00
12801;BME280;6464;42.494;27.470;2022-07-10T06:17:00;100872.41;;;23.16;100.00
12801;BME280;6464;42.494;27.470;2022-07-10T06:19:27;100997.34;;;24.04;100.00
12801;BME280;6464;42.494;27.470;2022-07-10T06:21:54;100952.41;;;23.66;100.00
12801;BME280;6464;42.494;27.470;2022-07-10T06:24:37;100958.88;;;23.76;100.00
12801;BME280;6464;42.494;27.470;2022-07-10T06:27:04;101021.38;;;24.20;100.00
12801;BME280;6464;42.494;27.470;2022-07-10T06:29:32;100951.78;;;23.75;100.00
12801;BME280;6464;42.494;27.470;2022-07-10T06:31:59;100956.81;;;23.67;100.00
12801;BME280;6464;42.494;27.470;2022-07-10T06:34:26;101020.63;;;24.18;100.00
12801;BME280;6464;42.494;27.470;2022-07-10T06:36:53;101010.38;;;24.23;100.00
12801;BME280;6464;42.494;27.470;2022-07-10T06:39:21;100942.72;;;23.76;100.00
12801;BME280;6464;42.494;27.470;2022-07-10T06:41:49;100984.84;;;24.16;100.00
12801;BME280;6464;42.494;27.470;2022-07-10T06:44:16;100975.56;;;24.32;100.00
12801;BME280;6464;42.494;27.470;2022-07-10T06:46:43;100960.03;;;23.98;100.00
12801;BME280;6464;42.494;27.470;2022-07-10T06:49:30;100983.88;;;24.04;100.00
12801;BME280;6464;42.494;27.470;2022-07-10T06:51:56;101025.69;;;24.48;100.00
12801;BME280;6464;42.494;27.470;2022-07-10T06:54:23;101012.97;;;24.50;100.00
12801;BME280;6464;42.494;27.470;2022-07-10T06:56:52;101024.59;;;24.50;100.00
12801;BME280;6464;42.494;27.470;2022-07-10T06:59:19;101035.13;;;24.79;100.00
12801;BME280;6464;42.494;27.470;2022-07-10T07:01:46;101046.56;;;24.70;100.00
12801;BME280;6464;42.494;27.470;2022-07-10T07:04:13;101002.03;;;24.64;100.00
12801;BME280;6464;42.494;27.470;2022-07-10T07:06:40;101055.63;;;25.18;100.00
12801;BME280;6464;42.494;27.470;2022-07-10T07:09:07;100973.03;;;24.55;100.00
12801;BME280;6464;42.494;27.470;2022-07-10T07:11:34;101064.09;;;25.01;100.00
12801;BME280;6464;42.494;27.470;2022-07-10T07:14:02;101050.41;;;24.91;100.00
12801;BME280;6464;42.494;27.470;2022-07-10T07:16:29;101063.31;;;24.99;100.00
12801;BME280;6464;42.494;27.470;2022-07-10T07:19:07;101058.28;;;25.07;100.00
12801;BME280;6464;42.494;27.470;2022-07-10T07:21:35;101061.16;;;25.41;100.00
12801;BME280;6464;42.494;27.470;2022-07-10T07:24:19;101080.06;;;25.41;100.00
12801;BME280;6464;42.494;27.470;2022-07-10T07:26:46;101044.22;;;25.38;100.00
12801;BME280;6464;42.494;27.470;2022-07-10T07:29:16;101086.81;;;25.70;100.00
12801;BME280;6464;42.494;27.470;2022-07-10T07:31:43;101091.53;;;25.79;100.00
12801;BME280;6464;42.494;27.470;2022-07-10T07:34:10;101100.69;;;26.01;100.00
12801;BME280;6464;42.494;27.470;2022-07-10T07:36:37;101100.47;;;26.04;100.00
12801;BME280;6464;42.494;27.470;2022-07-10T07:39:04;101096.91;;;26.14;100.00
12801;BME280;6464;42.494;27.470;2022-07-10T07:41:31;101090.22;;;26.31;100.00
12801;BME280;6464;42.494;27.470;2022-07-10T07:43:58;101098.34;;;26.43;100.00
12801;BME280;6464;42.494;27.470;2022-07-10T07:46:27;101098.97;;;26.46;100.00
12801;BME280;6464;42.494;27.470;2022-07-10T07:48:54;101094.13;;;26.38;100.00
12801;BME280;6464;42.494;27.470;2022-07-10T07:51:21;101087.03;;;26.49;100.00
12801;BME280;6464;42.494;27.470;2022-07-10T07:53:48;101081.38;;;26.40;100.00
12801;BME280;6464;42.494;27.470;2022-07-10T07:56:15;101090.31;;;26.30;100.00
12801;BME280;6464;42.494;27.470;2022-07-10T07:58:42;101082.06;;;26.20;100.00
12801;BME280;6464;42.494;27.470;2022-07-10T08:01:09;101081.84;;;26.34;100.00
12801;BME280;6464;42.494;27.470;2022-07-10T08:03:37;101096.50;;;26.43;100.00
12801;BME280;6464;42.494;27.470;2022-07-10T08:06:04;101089.94;;;26.34;100.00
12801;BME280;6464;42.494;27.470;2022-07-10T08:08:31;101085.44;;;26.69;100.00
12801;BME280;6464;42.494;27.470;2022-07-10T08:10:58;101104.13;;;26.83;100.00
12801;BME280;6464;42.494;27.470;2022-07-10T08:13:25;101024.19;;;26.34;100.00
12801;BME280;6464;42.494;27.470;2022-07-10T08:15:52;101095.91;;;26.84;100.00
12801;BME280;6464;42.494;27.470;2022-07-10T08:18:19;101115.94;;;27.15;100.00
12801;BME280;6464;42.494;27.470;2022-07-10T08:20:48;101108.94;;;27.24;100.00
12801;BME280;6464;42.494;27.470;2022-07-10T08:23:14;101115.25;;;27.46;100.00
12801;BME280;6464;42.494;27.470;2022-07-10T08:25:41;101059.09;;;27.04;100.00
12801;BME280;6464;42.494;27.470;2022-07-10T08:28:08;101076.84;;;27.08;100.00
12801;BME280;6464;42.494;27.470;2022-07-10T08:30:37;101107.50;;;27.52;100.00
12801;BME280;6464;42.494;27.470;2022-07-10T08:33:04;101114.59;;;27.64;100.00
12801;BME280;6464;42.494;27.470;2022-07-10T08:35:31;101064.47;;;27.59;100.00
12801;BME280;6464;42.494;27.470;2022-07-10T08:38:00;101119.69;;;27.90;100.00
12801;BME280;6464;42.494;27.470;2022-07-10T08:40:34;101126.13;;;28.10;100.00
12801;BME280;6464;42.494;27.470;2022-07-10T08:43:02;101136.69;;;28.13;100.00
12801;BME280;6464;42.494;27.470;2022-07-10T08:45:31;101131.41;;;28.11;100.00
12801;BME280;6464;42.494;27.470;2022-07-10T08:48:01;101133.78;;;28.26;100.00
12801;BME280;6464;42.494;27.470;2022-07-10T08:50:32;101125.50;;;28.27;100.00
12801;BME280;6464;42.494;27.470;2022-07-10T08:53:07;101126.31;;;28.18;100.00
12801;BME280;6464;42.494;27.470;2022-07-10T08:55:35;101135.47;;;28.38;100.00
12801;BME280;6464;42.494;27.470;2022-07-10T08:58:03;101137.44;;;28.57;100.00
12801;BME280;6464;42.494;27.470;2022-07-10T09:00:30;101157.97;;;28.80;100.00
12801;BME280;6464;42.494;27.470;2022-07-10T09:02:57;101153.25;;;28.73;100.00
12801;BME280;6464;42.494;27.470;2022-07-10T09:05:25;101110.75;;;28.62;100.00
12801;BME280;6464;42.494;27.470;2022-07-10T09:07:52;101143.97;;;28.33;100.00
12801;BME280;6464;42.494;27.470;2022-07-10T09:10:24;101123.13;;;27.49;100.00
12801;BME280;6464;42.494;27.470;2022-07-10T09:12:55;101113.81;;;27.41;100.00
12801;BME280;6464;42.494;27.470;2022-07-10T09:15:23;101046.47;;;26.94;100.00
12801;BME280;6464;42.494;27.470;2022-07-10T09:17:52;101097.78;;;27.50;100.00
12801;BME280;6464;42.494;27.470;2022-07-10T09:20:31;101097.28;;;27.45;100.00
12801;BME280;6464;42.494;27.470;2022-07-10T09:22:59;101111.78;;;27.55;100.00
12801;BME280;6464;42.494;27.470;2022-07-10T09:25:36;101105.41;;;27.45;100.00
12801;BME280;6464;42.494;27.470;2022-07-10T09:28:04;101118.53;;;27.60;100.00
12801;BME280;6464;42.494;27.470;2022-07-10T09:30:35;101021.44;;;27.12;100.00
12801;BME280;6464;42.494;27.470;2022-07-10T09:33:16;101103.63;;;27.77;100.00
12801;BME280;6464;42.494;27.470;2022-07-10T09:35:58;101110.50;;;27.70;100.00
12801;BME280;6464;42.494;27.470;2022-07-10T09:38:51;101117.94;;;28.00;100.00
12801;BME280;6464;42.494;27.470;2022-07-10T09:41:22;101131.63;;;28.40;100.00
12801;BME280;6464;42.494;27.470;2022-07-10T09:43:54;101141.72;;;29.11;100.00
12801;BME280;6464;42.494;27.470;2022-07-10T09:46:24;101129.41;;;29.76;100.00
12801;BME280;6464;42.494;27.470;2022-07-10T09:49:06;101142.41;;;30.02;100.00
12801;BME280;6464;42.494;27.470;2022-07-10T09:51:34;101159.53;;;30.51;100.00
12801;BME280;6464;42.494;27.470;2022-07-10T09:54:03;101169.28;;;30.73;100.00
12801;BME280;6464;42.494;27.470;2022-07-10T09:56:39;101160.88;;;30.93;100.00
12801;BME280;6464;42.494;27.470;2022-07-10T09:59:11;101149.34;;;31.37;100.00
12801;BME280;6464;42.494;27.470;2022-07-10T10:01:43;101149.06;;;31.40;100.00
12801;BME280;6464;42.494;27.470;2022-07-10T10:04:12;101157.78;;;31.43;100.00
12801;BME280;6464;42.494;27.470;2022-07-10T10:06:40;101153.00;;;31.73;100.00
12801;BME280;6464;42.494;27.470;2022-07-10T10:09:12;101151.84;;;31.93;100.00
12801;BME280;6464;42.494;27.470;2022-07-10T10:11:44;101150.25;;;32.27;100.00
12801;BME280;6464;42.494;27.470;2022-07-10T10:14:15;101142.25;;;32.33;100.00
12801;BME280;6464;42.494;27.470;2022-07-10T10:16:46;101123.34;;;31.42;100.00
12801;BME280;6464;42.494;27.470;2022-07-10T10:19:14;101128.28;;;31.74;100.00
12801;BME280;6464;42.494;27.470;2022-07-10T10:21:59;101113.91;;;31.82;100.00
12801;BME280;6464;42.494;27.470;2022-07-10T10:24:31;101156.41;;;33.07;100.00
12801;BME280;6464;42.494;27.470;2022-07-10T10:27:01;101153.19;;;32.51;100.00
12801;BME280;6464;42.494;27.470;2022-07-10T10:29:28;101183.81;;;33.31;100.00
12801;BME280;6464;42.494;27.470;2022-07-10T10:31:56;101071.47;;;32.58;100.00
12801;BME280;6464;42.494;27.470;2022-07-10T10:34:40;101093.19;;;32.93;100.00
12801;BME280;6464;42.494;27.470;2022-07-10T10:37:32;101148.41;;;32.87;100.00
12801;BME280;6464;42.494;27.470;2022-07-10T10:40:02;101111.22;;;31.55;100.00
12801;BME280;6464;42.494;27.470;2022-07-10T10:42:35;101099.25;;;31.20;100.00
12801;BME280;6464;42.494;27.470;2022-07-10T10:45:30;101113.66;;;31.58;100.00
12801;BME280;6464;42.494;27.470;2022-07-10T10:48:02;101072.84;;;32.10;100.00
12801;BME280;6464;42.494;27.470;2022-07-10T10:50:38;101119.66;;;32.41;100.00
12801;BME280;6464;42.494;27.470;2022-07-10T10:53:12;101135.53;;;32.71;100.00
12801;BME280;6464;42.494;27.470;2022-07-10T10:55:39;101150.13;;;33.73;100.00
12801;BME280;6464;42.494;27.470;2022-07-10T10:58:16;101129.66;;;32.58;100.00
12801;BME280;6464;42.494;27.470;2022-07-10T11:00:45;101131.28;;;33.54;100.00
12801;BME280;6464;42.494;27.470;2022-07-10T11:03:21;101145.50;;;33.73;100.00
12801;BME280;6464;42.494;27.470;2022-07-10T11:05:49;101119.81;;;32.39;100.00
12801;BME280;6464;42.494;27.470;2022-07-10T11:08:40;101125.84;;;32.77;100.00
12801;BME280;6464;42.494;27.470;2022-07-10T11:11:36;101148.78;;;33.85;100.00
12801;BME280;6464;42.494;27.470;2022-07-10T11:14:08;101150.53;;;33.94;100.00
12801;BME280;6464;42.494;27.470;2022-07-10T11:16:35;101139.25;;;34.14;100.00
12801;BME280;6464;42.494;27.470;2022-07-10T11:19:04;101082.44;;;33.67;100.00
12801;BME280;6464;42.494;27.470;2022-07-10T11:21:42;101119.59;;;33.27;100.00
12801;BME280;6464;42.494;27.470;2022-07-10T11:24:24;101096.00;;;32.49;100.00
12801;BME280;6464;42.494;27.470;2022-07-10T11:27:02;101148.56;;;35.24;100.00
12801;BME280;6464;42.494;27.470;2022-07-10T11:29:37;101153.69;;;38.24;100.00
12801;BME280;6464;42.494;27.470;2022-07-10T11:32:05;101214.56;;;39.48;100.00
12801;BME280;6464;42.494;27.470;2022-07-10T11:34:36;101172.72;;;37.91;100.00
12801;BME280;6464;42.494;27.470;2022-07-10T11:37:05;101123.09;;;34.68;100.00
12801;BME280;6464;42.494;27.470;2022-07-10T11:39:39;101099.66;;;33.43;100.00
12801;BME280;6464;42.494;27.470;2022-07-10T11:42:06;101098.53;;;33.94;100.00
12801;BME280;6464;42.494;27.470;2022-07-10T11:44:33;101103.97;;;34.35;100.00
12801;BME280;6464;42.494;27.470;2022-07-10T11:47:02;101114.97;;;33.94;100.00
12801;BME280;6464;42.494;27.470;2022-07-10T11:49:30;101101.47;;;33.26;100.00
12801;BME280;6464;42.494;27.470;2022-07-10T11:52:01;101114.03;;;35.38;100.00
12801;BME280;6464;42.494;27.470;2022-07-10T11:54:29;101148.31;;;37.16;100.00
12801;BME280;6464;42.494;27.470;2022-07-10T11:56:56;101169.63;;;38.50;100.00
12801;BME280;6464;42.494;27.470;2022-07-10T11:59:24;101139.78;;;38.54;100.00
12801;BME280;6464;42.494;27.470;2022-07-10T12:01:52;101088.22;;;35.01;100.00
12801;BME280;6464;42.494;27.470;2022-07-10T12:04:23;101020.53;;;31.88;100.00
12801;BME280;6464;42.494;27.470;2022-07-10T12:06:53;101019.75;;;31.78;100.00
12801;BME280;6464;42.494;27.470;2022-07-10T12:09:23;100891.19;;;30.85;100.00
12801;BME280;6464;42.494;27.470;2022-07-10T12:12:01;100894.28;;;30.27;100.00
12801;BME280;6464;42.494;27.470;2022-07-10T12:14:32;100926.75;;;29.91;100.00
12801;BME280;6464;42.494;27.470;2022-07-10T12:17:22;100972.97;;;29.91;100.00
12801;BME280;6464;42.494;27.470;2022-07-10T12:19:55;100914.97;;;29.44;100.00
12801;BME280;6464;42.494;27.470;2022-07-10T12:22:23;101001.38;;;29.60;100.00
12801;BME280;6464;42.494;27.470;2022-07-10T12:25:09;100997.00;;;30.80;100.00
12801;BME280;6464;42.494;27.470;2022-07-10T12:27:47;101068.09;;;32.64;100.00
12801;BME280;6464;42.494;27.470;2022-07-10T12:30:14;100976.75;;;32.24;100.00
12801;BME280;6464;42.494;27.470;2022-07-10T12:32:44;101053.50;;;31.59;100.00
12801;BME280;6464;42.494;27.470;2022-07-10T12:35:17;100958.25;;;31.22;100.00
12801;BME280;6464;42.494;27.470;2022-07-10T12:37:47;100942.44;;;32.56;100.00
12801;BME280;6464;42.494;27.470;2022-07-10T12:40:32;100949.81;;;33.46;100.00
12801;BME280;6464;42.494;27.470;2022-07-10T12:43:05;101020.25;;;33.02;100.00
12801;BME280;6464;42.494;27.470;2022-07-10T12:45:41;101047.41;;;32.61;100.00
12801;BME280;6464;42.494;27.470;2022-07-10T12:48:34;101010.53;;;31.35;100.00
12801;BME280;6464;42.494;27.470;2022-07-10T12:51:57;100875.69;;;29.85;100.00
12801;BME280;6464;42.494;27.470;2022-07-10T12:54:34;100978.78;;;30.53;100.00
12801;BME280;6464;42.494;27.470;2022-07-10T12:57:04;100978.28;;;29.74;100.00
12801;BME280;6464;42.494;27.470;2022-07-10T12:59:37;100883.81;;;28.90;100.00
12801;BME280;6464;42.494;27.470;2022-07-10T13:02:17;100848.97;;;28.95;100.00
12801;BME280;6464;42.494;27.470;2022-07-10T13:04:54;100839.25;;;28.92;100.00
12801;BME280;6464;42.494;27.470;2022-07-10T13:07:30;100897.28;;;29.11;100.00
12801;BME280;6464;42.494;27.470;2022-07-10T13:10:03;100972.34;;;29.60;100.00
12801;BME280;6464;42.494;27.470;2022-07-10T13:12:33;100876.00;;;29.16;100.00
12801;BME280;6464;42.494;27.470;2022-07-10T13:15:02;100802.38;;;28.80;100.00
12801;BME280;6464;42.494;27.470;2022-07-10T13:17:33;100871.53;;;28.76;100.00
12801;BME280;6464;42.494;27.470;2022-07-10T13:20:03;100789.31;;;28.06;100.00
12801;BME280;6464;42.494;27.470;2022-07-10T13:22:36;100878.81;;;28.76;100.00
12801;BME280;6464;42.494;27.470;2022-07-10T13:25:04;100995.22;;;29.58;100.00
12801;BME280;6464;42.494;27.470;2022-07-10T13:27:32;100895.56;;;29.10;100.00
12801;BME280;6464;42.494;27.470;2022-07-10T13:30:03;100837.41;;;28.64;100.00
12801;BME280;6464;42.494;27.470;2022-07-10T13:32:30;100812.66;;;28.38;100.00
12801;BME280;6464;42.494;27.470;2022-07-10T13:35:14;100929.84;;;28.91;100.00
12801;BME280;6464;42.494;27.470;2022-07-10T13:37:45;100841.38;;;28.60;100.00
12801;BME280;6464;42.494;27.470;2022-07-10T13:40:13;100982.47;;;29.10;100.00
12801;BME280;6464;42.494;27.470;2022-07-10T13:42:43;100976.31;;;29.08;100.00
12801;BME280;6464;42.494;27.470;2022-07-10T13:45:10;100943.31;;;29.12;100.00
12801;BME280;6464;42.494;27.470;2022-07-10T13:47:37;100953.72;;;30.50;100.00
12801;BME280;6464;42.494;27.470;2022-07-10T13:50:06;100953.13;;;31.37;100.00
12801;BME280;6464;42.494;27.470;2022-07-10T13:52:33;101034.38;;;31.95;100.00
12801;BME280;6464;42.494;27.470;2022-07-10T13:55:08;100856.13;;;29.72;100.00
12801;BME280;6464;42.494;27.470;2022-07-10T13:57:52;100954.44;;;29.67;100.00
12801;BME280;6464;42.494;27.470;2022-07-10T14:00:19;100818.25;;;28.56;100.00
12801;BME280;6464;42.494;27.470;2022-07-10T14:02:46;100986.59;;;29.14;100.00
12801;BME280;6464;42.494;27.470;2022-07-10T14:05:13;101023.78;;;29.52;100.00
12801;BME280;6464;42.494;27.470;2022-07-10T14:07:43;100993.47;;;29.18;100.00
12801;BME280;6464;42.494;27.470;2022-07-10T14:10:22;100968.34;;;29.06;100.00
12801;BME280;6464;42.494;27.470;2022-07-10T14:12:51;101029.22;;;31.03;100.00
12801;BME280;6464;42.494;27.470;2022-07-10T14:15:21;101047.13;;;32.12;100.00
12801;BME280;6464;42.494;27.470;2022-07-10T14:17:48;101044.84;;;31.64;100.00
12801;BME280;6464;42.494;27.470;2022-07-10T14:20:15;101028.66;;;31.44;100.00
12801;BME280;6464;42.494;27.470;2022-07-10T14:22:43;101012.84;;;31.30;100.00
12801;BME280;6464;42.494;27.470;2022-07-10T14:25:11;101051.50;;;31.43;100.00
12801;BME280;6464;42.494;27.470;2022-07-10T14:27:40;101018.97;;;30.32;100.00
12801;BME280;6464;42.494;27.470;2022-07-10T14:30:08;101023.66;;;30.77;100.00
12801;BME280;6464;42.494;27.470;2022-07-10T14:32:35;101007.34;;;30.39;100.00
12801;BME280;6464;42.494;27.470;2022-07-10T14:35:02;100992.84;;;30.76;100.00
12801;BME280;6464;42.494;27.470;2022-07-10T14:37:29;101043.25;;;31.08;100.00
12801;BME280;6464;42.494;27.470;2022-07-10T14:39:56;101044.69;;;31.47;100.00
12801;BME280;6464;42.494;27.470;2022-07-10T14:42:23;101080.88;;;33.56;100.00
12801;BME280;6464;42.494;27.470;2022-07-10T14:44:51;101097.38;;;34.69;100.00
12801;BME280;6464;42.494;27.470;2022-07-10T14:47:19;101063.28;;;32.92;100.00
12801;BME280;6464;42.494;27.470;2022-07-10T14:49:46;101049.50;;;32.67;100.00
12801;BME280;6464;42.494;27.470;2022-07-10T14:52:13;101057.75;;;31.97;100.00
12801;BME280;6464;42.494;27.470;2022-07-10T14:54:42;101072.78;;;32.80;100.00
12801;BME280;6464;42.494;27.470;2022-07-10T14:57:09;101060.97;;;33.30;100.00
12801;BME280;6464;42.494;27.470;2022-07-10T14:59:38;101066.00;;;33.42;100.00
12801;BME280;6464;42.494;27.470;2022-07-10T15:02:06;101057.28;;;33.47;100.00
12801;BME280;6464;42.494;27.470;2022-07-10T15:04:33;101057.34;;;33.05;100.00
12801;BME280;6464;42.494;27.470;2022-07-10T15:07:00;101027.00;;;32.13;100.00
12801;BME280;6464;42.494;27.470;2022-07-10T15:09:27;101045.59;;;32.78;100.00
12801;BME280;6464;42.494;27.470;2022-07-10T15:11:54;101030.03;;;33.21;100.00
12801;BME280;6464;42.494;27.470;2022-07-10T15:14:21;101006.94;;;32.91;100.00
12801;BME280;6464;42.494;27.470;2022-07-10T15:16:48;101042.53;;;33.23;100.00
12801;BME280;6464;42.494;27.470;2022-07-10T15:19:17;101084.41;;;33.32;100.00
12801;BME280;6464;42.494;27.470;2022-07-10T15:21:44;101097.09;;;33.49;100.00
12801;BME280;6464;42.494;27.470;2022-07-10T15:24:11;101088.13;;;33.23;100.00
12801;BME280;6464;42.494;27.470;2022-07-10T15:26:37;101047.97;;;32.39;100.00
12801;BME280;6464;42.494;27.470;2022-07-10T15:29:04;100953.56;;;31.68;100.00
12801;BME280;6464;42.494;27.470;2022-07-10T15:31:31;100999.81;;;31.60;100.00
12801;BME280;6464;42.494;27.470;2022-07-10T15:33:59;101049.41;;;31.99;100.00
12801;BME280;6464;42.494;27.470;2022-07-10T15:36:28;101039.72;;;32.05;100.00
12801;BME280;6464;42.494;27.470;2022-07-10T15:38:55;101067.94;;;32.65;100.00
12801;BME280;6464;42.494;27.470;2022-07-10T15:41:22;101068.56;;;32.33;100.00
12801;BME280;6464;42.494;27.470;2022-07-10T15:43:49;101026.19;;;31.23;100.00
12801;BME280;6464;42.494;27.470;2022-07-10T15:46:16;101019.56;;;30.90;100.00
12801;BME280;6464;42.494;27.470;2022-07-10T15:48:43;100969.03;;;30.78;100.00
12801;BME280;6464;42.494;27.470;2022-07-10T15:51:10;101016.06;;;30.98;100.00
12801;BME280;6464;42.494;27.470;2022-07-10T15:53:42;101044.31;;;30.97;100.00
12801;BME280;6464;42.494;27.470;2022-07-10T15:56:09;101052.06;;;31.19;100.00
12801;BME280;6464;42.494;27.470;2022-07-10T15:58:36;101061.47;;;30.80;100.00
12801;BME280;6464;42.494;27.470;2022-07-10T16:01:03;101047.16;;;30.68;100.00
12801;BME280;6464;42.494;27.470;2022-07-10T16:03:30;101073.00;;;31.19;100.00
12801;BME280;6464;42.494;27.470;2022-07-10T16:05:57;101033.50;;;30.50;100.00
12801;BME280;6464;42.494;27.470;2022-07-10T16:08:24;101080.56;;;30.33;100.00
12801;BME280;6464;42.494;27.470;2022-07-10T16:10:52;101051.09;;;29.99;100.00
12801;BME280;6464;42.494;27.470;2022-07-10T16:13:19;101073.91;;;29.79;100.00
12801;BME280;6464;42.494;27.470;2022-07-10T16:15:46;101012.63;;;29.07;100.00
12801;BME280;6464;42.494;27.470;2022-07-10T16:18:13;101053.19;;;28.99;100.00
12801;BME280;6464;42.494;27.470;2022-07-10T16:20:41;101046.38;;;28.74;100.00
12801;BME280;6464;42.494;27.470;2022-07-10T16:23:08;101005.13;;;28.39;100.00
12801;BME280;6464;42.494;27.470;2022-07-10T16:25:35;101042.75;;;28.54;100.00
12801;BME280;6464;42.494;27.470;2022-07-10T16:28:35;101038.16;;;28.33;100.00
12801;BME280;6464;42.494;27.470;2022-07-10T16:31:02;101033.03;;;28.30;100.00
12801;BME280;6464;42.494;27.470;2022-07-10T16:33:29;100971.41;;;27.81;100.00
12801;BME280;6464;42.494;27.470;2022-07-10T16:35:56;101033.53;;;27.93;100.00
12801;BME280;6464;42.494;27.470;2022-07-10T16:38:23;100955.91;;;27.30;100.00
12801;BME280;6464;42.494;27.470;2022-07-10T16:40:50;101011.75;;;27.63;100.00
12801;BME280;6464;42.494;27.470;2022-07-10T16:43:18;100964.34;;;27.15;100.00
12801;BME280;6464;42.494;27.470;2022-07-10T16:45:47;101028.81;;;27.54;100.00
12801;BME280;6464;42.494;27.470;2022-07-10T16:48:14;101022.19;;;27.47;100.00
12801;BME280;6464;42.494;27.470;2022-07-10T16:50:41;101037.09;;;27.73;100.00
12801;BME280;6464;42.494;27.470;2022-07-10T16:53:08;100975.94;;;27.38;100.00
12801;BME280;6464;42.494;27.470;2022-07-10T16:55:35;101000.09;;;27.30;100.00
12801;BME280;6464;42.494;27.470;2022-07-10T16:58:02;100963.50;;;26.92;100.00
12801;BME280;6464;42.494;27.470;2022-07-10T17:00:29;100987.13;;;27.13;100.00
12801;BME280;6464;42.494;27.470;2022-07-10T17:02:57;101024.69;;;27.38;100.00
12801;BME280;6464;42.494;27.470;2022-07-10T17:05:24;100949.94;;;26.72;100.00
12801;BME280;6464;42.494;27.470;2022-07-10T17:07:51;101031.41;;;27.23;100.00
12801;BME280;6464;42.494;27.470;2022-07-10T17:10:18;101024.41;;;27.09;100.00
12801;BME280;6464;42.494;27.470;2022-07-10T17:12:45;101020.06;;;27.07;100.00
12801;BME280;6464;42.494;27.470;2022-07-10T17:15:13;100985.53;;;26.88;100.00
12801;BME280;6464;42.494;27.470;2022-07-10T17:17:40;100902.78;;;26.31;100.00
12801;BME280;6464;42.494;27.470;2022-07-10T17:20:10;101017.91;;;26.89;100.00
12801;BME280;6464;42.494;27.470;2022-07-10T17:22:37;101016.22;;;26.88;100.00
12801;BME280;6464;42.494;27.470;2022-07-10T17:25:05;101018.41;;;26.83;100.00
12801;BME280;6464;42.494;27.470;2022-07-10T17:27:33;100990.06;;;26.55;100.00
12801;BME280;6464;42.494;27.470;2022-07-10T17:30:00;101024.84;;;26.71;100.00
12801;BME280;6464;42.494;27.470;2022-07-10T17:32:27;101024.59;;;26.63;100.00
12801;BME280;6464;42.494;27.470;2022-07-10T17:34:54;101022.63;;;26.54;100.00
12801;BME280;6464;42.494;27.470;2022-07-10T17:37:22;101006.13;;;26.34;100.00
12801;BME280;6464;42.494;27.470;2022-07-10T17:39:49;100987.31;;;26.10;100.00
12801;BME280;6464;42.494;27.470;2022-07-10T17:42:17;101005.00;;;26.14;100.00
12801;BME280;6464;42.494;27.470;2022-07-10T17:44:45;100998.50;;;26.06;100.00
12801;BME280;6464;42.494;27.470;2022-07-10T17:47:12;101002.91;;;25.96;100.00
12801;BME280;6464;42.494;27.470;2022-07-10T17:49:39;100992.09;;;25.84;100.00
12801;BME280;6464;42.494;27.470;2022-07-10T17:52:06;100953.44;;;25.49;100.00
12801;BME280;6464;42.494;27.470;2022-07-10T17:54:35;100931.28;;;25.32;100.00
12801;BME280;6464;42.494;27.470;2022-07-10T17:57:02;100992.50;;;25.67;100.00
12801;BME280;6464;42.494;27.470;2022-07-10T17:59:29;100955.47;;;25.34;100.00
12801;BME280;6464;42.494;27.470;2022-07-10T18:01:56;101011.41;;;25.67;100.00
12801;BME280;6464;42.494;27.470;2022-07-10T18:04:23;101009.44;;;25.58;100.00
12801;BME280;6464;42.494;27.470;2022-07-10T18:06:51;100990.72;;;25.44;100.00
12801;BME280;6464;42.494;27.470;2022-07-10T18:09:18;100997.50;;;25.49;100.00
12801;BME280;6464;42.494;27.470;2022-07-10T18:11:46;100927.19;;;25.16;100.00
12801;BME280;6464;42.494;27.470;2022-07-10T18:14:13;101025.25;;;25.62;100.00
12801;BME280;6464;42.494;27.470;2022-07-10T18:16:41;101021.94;;;25.59;100.00
12801;BME280;6464;42.494;27.470;2022-07-10T18:19:08;101032.78;;;25.70;100.00
12801;BME280;6464;42.494;27.470;2022-07-10T18:21:36;101043.81;;;25.67;100.00
12801;BME280;6464;42.494;27.470;2022-07-10T18:24:04;100957.22;;;25.11;100.00
12801;BME280;6464;42.494;27.470;2022-07-10T18:26:33;101019.09;;;25.49;100.00
12801;BME280;6464;42.494;27.470;2022-07-10T18:29:02;100981.66;;;25.21;100.00
12801;BME280;6464;42.494;27.470;2022-07-10T18:31:29;101053.22;;;25.50;100.00
12801;BME280;6464;42.494;27.470;2022-07-10T18:33:56;101034.84;;;25.31;100.00
12801;BME280;6464;42.494;27.470;2022-07-10T18:36:41;101020.78;;;25.15;100.00
12801;BME280;6464;42.494;27.470;2022-07-10T18:39:08;100995.34;;;24.94;100.00